sensor_id;sensor_type;location;lat;lon;timestamp;P1;durP1;ratioP1;P2;durP2;ratioP2
17866;SDS011;9059;49.934;8.650;2024-01-16T00:07:18;1.47;;;0.77;;
17866;SDS011;9059;49.934;8.650;2024-01-16T00:17:22;2.50;;;0.80;;
17866;SDS011;9059;49.934;8.650;2024-01-16T00:27:25;3.27;;;0.93;;
17866;SDS011;9059;49.934;8.650;2024-01-16T00:37:29;4.20;;;1.30;;
17866;SDS011;9059;49.934;8.650;2024-01-16T00:47:32;4.93;;;1.13;;
17866;SDS011;9059;49.934;8.650;2024-01-16T00:57:36;5.83;;;1.40;;
17866;SDS011;9059;49.934;8.650;2024-01-16T01:07:39;6.50;;;1.93;;
17866;SDS011;9059;49.934;8.650;2024-01-16T01:17:43;4.20;;;1.50;;
17866;SDS011;9059;49.934;8.650;2024-01-16T01:27:46;2.73;;;1.10;;
17866;SDS011;9059;49.934;8.650;2024-01-16T01:37:50;9.47;;;1.67;;
17866;SDS011;9059;49.934;8.650;2024-01-16T01:47:53;3.23;;;1.10;;
17866;SDS011;9059;49.934;8.650;2024-01-16T01:57:57;2.57;;;1.40;;
17866;SDS011;9059;49.934;8.650;2024-01-16T02:08:02;2.90;;;1.40;;
17866;SDS011;9059;49.934;8.650;2024-01-16T02:18:07;3.73;;;1.30;;
17866;SDS011;9059;49.934;8.650;2024-01-16T02:28:11;6.60;;;1.20;;
17866;SDS011;9059;49.934;8.650;2024-01-16T02:38:14;4.00;;;1.67;;
17866;SDS011;9059;49.934;8.650;2024-01-16T02:48:18;3.20;;;1.47;;
17866;SDS011;9059;49.934;8.650;2024-01-16T02:58:21;5.77;;;1.43;;
17866;SDS011;9059;49.934;8.650;2024-01-16T03:08:26;1.90;;;0.90;;
17866;SDS011;9059;49.934;8.650;2024-01-16T03:18:28;4.20;;;1.60;;
17866;SDS011;9059;49.934;8.650;2024-01-16T03:28:33;6.53;;;1.87;;
17866;SDS011;9059;49.934;8.650;2024-01-16T03:38:36;5.37;;;1.60;;
17866;SDS011;9059;49.934;8.650;2024-01-16T03:48:40;4.33;;;1.80;;
17866;SDS011;9059;49.934;8.650;2024-01-16T03:58:43;10.03;;;1.60;;
17866;SDS011;9059;49.934;8.650;2024-01-16T04:08:47;6.07;;;2.20;;
17866;SDS011;9059;49.934;8.650;2024-01-16T04:18:50;5.13;;;1.80;;
17866;SDS011;9059;49.934;8.650;2024-01-16T04:28:55;5.43;;;2.20;;
17866;SDS011;9059;49.934;8.650;2024-01-16T04:38:57;3.70;;;1.70;;
17866;SDS011;9059;49.934;8.650;2024-01-16T04:49:03;3.10;;;1.67;;
17866;SDS011;9059;49.934;8.650;2024-01-16T04:59:05;5.27;;;1.70;;
17866;SDS011;9059;49.934;8.650;2024-01-16T05:09:10;4.10;;;1.17;;
17866;SDS011;9059;49.934;8.650;2024-01-16T05:19:13;4.80;;;1.70;;
17866;SDS011;9059;49.934;8.650;2024-01-16T05:29:18;5.47;;;2.07;;
17866;SDS011;9059;49.934;8.650;2024-01-16T05:39:21;8.03;;;2.33;;
17866;SDS011;9059;49.934;8.650;2024-01-16T05:49:25;4.33;;;2.07;;
17866;SDS011;9059;49.934;8.650;2024-01-16T05:59:28;3.20;;;1.60;;
17866;SDS011;9059;49.934;8.650;2024-01-16T06:09:32;5.20;;;1.80;;
17866;SDS011;9059;49.934;8.650;2024-01-16T06:19:35;7.90;;;2.13;;
17866;SDS011;9059;49.934;8.650;2024-01-16T06:29:39;4.17;;;2.03;;
17866;SDS011;9059;49.934;8.650;2024-01-16T06:39:42;10.80;;;2.17;;
17866;SDS011;9059;49.934;8.650;2024-01-16T06:49:46;8.27;;;2.10;;
17866;SDS011;9059;49.934;8.650;2024-01-16T06:59:49;4.00;;;1.60;;
17866;SDS011;9059;49.934;8.650;2024-01-16T07:09:53;4.57;;;1.83;;
17866;SDS011;9059;49.934;8.650;2024-01-16T07:19:57;4.73;;;2.30;;
17866;SDS011;9059;49.934;8.650;2024-01-16T07:30:03;3.73;;;1.87;;
17866;SDS011;9059;49.934;8.650;2024-01-16T07:40:07;9.23;;;1.73;;
17866;SDS011;9059;49.934;8.650;2024-01-16T07:50:12;7.53;;;2.07;;
17866;SDS011;9059;49.934;8.650;2024-01-16T08:00:15;4.13;;;1.90;;
17866;SDS011;9059;49.934;8.650;2024-01-16T08:10:20;8.53;;;2.17;;
17866;SDS011;9059;49.934;8.650;2024-01-16T08:20:22;5.00;;;2.00;;
17866;SDS011;9059;49.934;8.650;2024-01-16T08:30:28;7.50;;;2.17;;
17866;SDS011;9059;49.934;8.650;2024-01-16T08:40:30;3.40;;;1.57;;
17866;SDS011;9059;49.934;8.650;2024-01-16T08:50:35;3.53;;;1.73;;
17866;SDS011;9059;49.934;8.650;2024-01-16T09:00:37;7.43;;;2.83;;
17866;SDS011;9059;49.934;8.650;2024-01-16T09:10:42;8.43;;;2.20;;
17866;SDS011;9059;49.934;8.650;2024-01-16T09:20:45;9.60;;;2.43;;
17866;SDS011;9059;49.934;8.650;2024-01-16T09:30:50;11.40;;;2.57;;
17866;SDS011;9059;49.934;8.650;2024-01-16T09:40:53;8.40;;;3.00;;
17866;SDS011;9059;49.934;8.650;2024-01-16T09:51:01;6.20;;;2.20;;
17866;SDS011;9059;49.934;8.650;2024-01-16T10:01:04;6.90;;;2.03;;
17866;SDS011;9059;49.934;8.650;2024-01-16T10:11:08;4.60;;;1.97;;
17866;SDS011;9059;49.934;8.650;2024-01-16T10:21:19;5.20;;;2.23;;
17866;SDS011;9059;49.934;8.650;2024-01-16T10:31:25;6.33;;;2.50;;
17866;SDS011;9059;49.934;8.650;2024-01-16T10:41:32;13.67;;;2.47;;
17866;SDS011;9059;49.934;8.650;2024-01-16T10:51:36;5.33;;;2.43;;
17866;SDS011;9059;49.934;8.650;2024-01-16T11:01:42;7.73;;;2.47;;
17866;SDS011;9059;49.934;8.650;2024-01-16T11:11:47;9.07;;;1.77;;
17866;SDS011;9059;49.934;8.650;2024-01-16T11:21:51;7.80;;;2.60;;
17866;SDS011;9059;49.934;8.650;2024-01-16T11:31:57;9.67;;;2.93;;
17866;SDS011;9059;49.934;8.650;2024-01-16T11:42:25;8.47;;;2.60;;
17866;SDS011;9059;49.934;8.650;2024-01-16T11:52:42;6.30;;;2.00;;
17866;SDS011;9059;49.934;8.650;2024-01-16T12:02:51;8.87;;;2.67;;
17866;SDS011;9059;49.934;8.650;2024-01-16T12:12:57;9.00;;;2.80;;
17866;SDS011;9059;49.934;8.650;2024-01-16T12:23:06;8.37;;;3.00;;
17866;SDS011;9059;49.934;8.650;2024-01-16T12:33:12;7.87;;;2.27;;
17866;SDS011;9059;49.934;8.650;2024-01-16T12:43:17;7.70;;;2.70;;
17866;SDS011;9059;49.934;8.650;2024-01-16T12:53:21;5.17;;;2.03;;
17866;SDS011;9059;49.934;8.650;2024-01-16T13:03:25;13.67;;;2.77;;
17866;SDS011;9059;49.934;8.650;2024-01-16T13:13:30;5.97;;;1.77;;
17866;SDS011;9059;49.934;8.650;2024-01-16T13:23:33;6.00;;;2.40;;
17866;SDS011;9059;49.934;8.650;2024-01-16T13:33:37;2.90;;;1.53;;
17866;SDS011;9059;49.934;8.650;2024-01-16T13:43:40;7.80;;;2.20;;
17866;SDS011;9059;49.934;8.650;2024-01-16T13:53:45;4.90;;;2.00;;
17866;SDS011;9059;49.934;8.650;2024-01-16T14:03:47;5.23;;;2.03;;
17866;SDS011;9059;49.934;8.650;2024-01-16T14:13:52;7.77;;;1.90;;
17866;SDS011;9059;49.934;8.650;2024-01-16T14:23:56;8.60;;;2.40;;
17866;SDS011;9059;49.934;8.650;2024-01-16T14:34:00;9.70;;;3.93;;
17866;SDS011;9059;49.934;8.650;2024-01-16T14:44:03;10.60;;;2.53;;
17866;SDS011;9059;49.934;8.650;2024-01-16T14:54:08;8.75;;;2.50;;
17866;SDS011;9059;49.934;8.650;2024-01-16T15:04:11;7.70;;;2.45;;
17866;SDS011;9059;49.934;8.650;2024-01-16T15:14:15;9.70;;;2.97;;
17866;SDS011;9059;49.934;8.650;2024-01-16T15:24:19;9.00;;;1.43;;
17866;SDS011;9059;49.934;8.650;2024-01-16T15:34:29;5.27;;;1.50;;
17866;SDS011;9059;49.934;8.650;2024-01-16T15:44:32;4.63;;;1.37;;
17866;SDS011;9059;49.934;8.650;2024-01-16T15:54:36;13.93;;;1.47;;
17866;SDS011;9059;49.934;8.650;2024-01-16T16:04:39;8.57;;;1.90;;
17866;SDS011;9059;49.934;8.650;2024-01-16T16:14:43;5.63;;;1.80;;
17866;SDS011;9059;49.934;8.650;2024-01-16T16:24:46;7.97;;;1.87;;
17866;SDS011;9059;49.934;8.650;2024-01-16T16:34:50;8.17;;;1.80;;
17866;SDS011;9059;49.934;8.650;2024-01-16T16:44:53;10.03;;;2.10;;
17866;SDS011;9059;49.934;8.650;2024-01-16T16:54:58;8.53;;;3.33;;
17866;SDS011;9059;49.934;8.650;2024-01-16T17:05:01;11.73;;;2.90;;
17866;SDS011;9059;49.934;8.650;2024-01-16T17:15:06;9.77;;;3.20;;
17866;SDS011;9059;49.934;8.650;2024-01-16T17:25:09;18.33;;;4.50;;
17866;SDS011;9059;49.934;8.650;2024-01-16T17:35:14;14.33;;;4.10;;
17866;SDS011;9059;49.934;8.650;2024-01-16T17:45:20;9.47;;;2.83;;
17866;SDS011;9059;49.934;8.650;2024-01-16T17:55:24;13.23;;;3.43;;
17866;SDS011;9059;49.934;8.650;2024-01-16T18:05:31;8.70;;;2.47;;
17866;SDS011;9059;49.934;8.650;2024-01-16T18:15:36;19.93;;;5.67;;
17866;SDS011;9059;49.934;8.650;2024-01-16T18:25:39;14.80;;;4.00;;
17866;SDS011;9059;49.934;8.650;2024-01-16T18:35:43;6.63;;;2.47;;
17866;SDS011;9059;49.934;8.650;2024-01-16T18:45:46;11.77;;;3.60;;
17866;SDS011;9059;49.934;8.650;2024-01-16T18:55:51;12.47;;;3.87;;
17866;SDS011;9059;49.934;8.650;2024-01-16T19:05:54;11.57;;;4.20;;
17866;SDS011;9059;49.934;8.650;2024-01-16T19:15:59;13.30;;;4.80;;
17866;SDS011;9059;49.934;8.650;2024-01-16T19:26:03;8.80;;;3.23;;
17866;SDS011;9059;49.934;8.650;2024-01-16T19:36:08;8.23;;;3.50;;
17866;SDS011;9059;49.934;8.650;2024-01-16T19:46:13;14.20;;;3.27;;
17866;SDS011;9059;49.934;8.650;2024-01-16T19:56:18;7.53;;;2.40;;
17866;SDS011;9059;49.934;8.650;2024-01-16T20:06:21;10.87;;;3.90;;
17866;SDS011;9059;49.934;8.650;2024-01-16T20:16:25;6.97;;;2.80;;
17866;SDS011;9059;49.934;8.650;2024-01-16T20:26:28;8.23;;;2.77;;
17866;SDS011;9059;49.934;8.650;2024-01-16T20:36:33;6.17;;;2.37;;
17866;SDS011;9059;49.934;8.650;2024-01-16T20:46:35;5.90;;;2.30;;
17866;SDS011;9059;49.934;8.650;2024-01-16T20:56:40;5.17;;;1.90;;
17866;SDS011;9059;49.934;8.650;2024-01-16T21:06:43;5.70;;;1.80;;
17866;SDS011;9059;49.934;8.650;2024-01-16T21:16:47;5.53;;;2.00;;
17866;SDS011;9059;49.934;8.650;2024-01-16T21:26:50;8.33;;;1.70;;
17866;SDS011;9059;49.934;8.650;2024-01-16T21:36:54;5.73;;;2.03;;
17866;SDS011;9059;49.934;8.650;2024-01-16T21:46:57;6.83;;;1.70;;
17866;SDS011;9059;49.934;8.650;2024-01-16T21:57:02;4.97;;;2.10;;
17866;SDS011;9059;49.934;8.650;2024-01-16T22:07:05;6.07;;;2.47;;
17866;SDS011;9059;49.934;8.650;2024-01-16T22:17:09;11.97;;;4.33;;
17866;SDS011;9059;49.934;8.650;2024-01-16T22:27:12;9.33;;;3.57;;
17866;SDS011;9059;49.934;8.650;2024-01-16T22:37:16;5.70;;;2.00;;
17866;SDS011;9059;49.934;8.650;2024-01-16T22:47:21;5.77;;;1.73;;
17866;SDS011;9059;49.934;8.650;2024-01-16T22:57:25;10.90;;;2.37;;
17866;SDS011;9059;49.934;8.650;2024-01-16T23:07:28;4.10;;;1.70;;
17866;SDS011;9059;49.934;8.650;2024-01-16T23:17:32;4.07;;;1.83;;
17866;SDS011;9059;49.934;8.650;2024-01-16T23:27:36;5.93;;;1.67;;
17866;SDS011;9059;49.934;8.650;2024-01-16T23:37:40;8.00;;;2.47;;
17866;SDS011;9059;49.934;8.650;2024-01-16T23:47:45;8.90;;;2.43;;
17866;SDS011;9059;49.934;8.650;2024-01-16T23:57:51;9.57;;;1.97;;
